sensor_id;sensor_type;location;lat;lon;timestamp;P1;durP1;ratioP1;P2;durP2;ratioP2
77304;SDS011;66364;52.622;7.746;2023-08-06T00:00:16;9.45;;;8.55;;
77304;SDS011;66364;52.622;7.746;2023-08-06T00:02:19;9.40;;;7.90;;
77304;SDS011;66364;52.622;7.746;2023-08-06T00:04:21;8.68;;;7.87;;
77304;SDS011;66364;52.622;7.746;2023-08-06T00:06:25;7.95;;;7.25;;
77304;SDS011;66364;52.622;7.746;2023-08-06T00:08:28;8.33;;;7.62;;
77304;SDS011;66364;52.622;7.746;2023-08-06T00:10:31;9.40;;;7.67;;
77304;SDS011;66364;52.622;7.746;2023-08-06T00:12:36;8.38;;;7.37;;
77304;SDS011;66364;52.622;7.746;2023-08-06T00:14:39;8.35;;;7.55;;
77304;SDS011;66364;52.622;7.746;2023-08-06T00:16:43;7.17;;;6.58;;
77304;SDS011;66364;52.622;7.746;2023-08-06T00:19:02;8.80;;;7.87;;
77304;SDS011;66364;52.622;7.746;2023-08-06T00:21:05;7.45;;;6.85;;
77304;SDS011;66364;52.622;7.746;2023-08-06T00:23:07;7.58;;;6.83;;
77304;SDS011;66364;52.622;7.746;2023-08-06T00:25:10;8.83;;;8.00;;
77304;SDS011;66364;52.622;7.746;2023-08-06T00:27:12;8.15;;;7.42;;
77304;SDS011;66364;52.622;7.746;2023-08-06T00:29:15;10.78;;;8.20;;
77304;SDS011;66364;52.622;7.746;2023-08-06T00:31:18;8.70;;;7.90;;
77304;SDS011;66364;52.622;7.746;2023-08-06T00:33:21;9.30;;;7.78;;
77304;SDS011;66364;52.622;7.746;2023-08-06T00:35:30;10.80;;;7.33;;
77304;SDS011;66364;52.622;7.746;2023-08-06T00:37:31;7.50;;;6.80;;
77304;SDS011;66364;52.622;7.746;2023-08-06T00:39:32;7.60;;;6.90;;
77304;SDS011;66364;52.622;7.746;2023-08-06T00:41:33;9.78;;;8.83;;
77304;SDS011;66364;52.622;7.746;2023-08-06T00:43:34;8.13;;;7.33;;
77304;SDS011;66364;52.622;7.746;2023-08-06T00:45:37;8.28;;;7.55;;
77304;SDS011;66364;52.622;7.746;2023-08-06T00:47:38;8.55;;;7.75;;
77304;SDS011;66364;52.622;7.746;2023-08-06T00:49:40;8.98;;;8.08;;
77304;SDS011;66364;52.622;7.746;2023-08-06T00:51:42;10.90;;;8.45;;
77304;SDS011;66364;52.622;7.746;2023-08-06T00:53:46;8.48;;;7.78;;
77304;SDS011;66364;52.622;7.746;2023-08-06T00:55:50;10.25;;;9.18;;
77304;SDS011;66364;52.622;7.746;2023-08-06T00:57:52;10.45;;;9.28;;
77304;SDS011;66364;52.622;7.746;2023-08-06T00:59:54;10.30;;;9.38;;
77304;SDS011;66364;52.622;7.746;2023-08-06T01:01:55;9.85;;;8.28;;
77304;SDS011;66364;52.622;7.746;2023-08-06T01:03:56;11.28;;;9.10;;
77304;SDS011;66364;52.622;7.746;2023-08-06T01:05:57;9.45;;;8.50;;
77304;SDS011;66364;52.622;7.746;2023-08-06T01:10:19;9.38;;;8.48;;
77304;SDS011;66364;52.622;7.746;2023-08-06T01:12:55;8.68;;;7.97;;
77304;SDS011;66364;52.622;7.746;2023-08-06T01:15:22;9.53;;;8.60;;
77304;SDS011;66364;52.622;7.746;2023-08-06T01:17:20;8.53;;;7.83;;
77304;SDS011;66364;52.622;7.746;2023-08-06T01:19:25;8.93;;;7.20;;
77304;SDS011;66364;52.622;7.746;2023-08-06T01:21:26;8.68;;;7.78;;
77304;SDS011;66364;52.622;7.746;2023-08-06T01:23:28;9.10;;;7.80;;
77304;SDS011;66364;52.622;7.746;2023-08-06T01:25:34;8.48;;;7.78;;
77304;SDS011;66364;52.622;7.746;2023-08-06T01:27:39;9.18;;;7.80;;
77304;SDS011;66364;52.622;7.746;2023-08-06T01:29:52;8.55;;;7.75;;
77304;SDS011;66364;52.622;7.746;2023-08-06T01:31:56;8.95;;;8.08;;
77304;SDS011;66364;52.622;7.746;2023-08-06T01:34:00;8.25;;;7.55;;
77304;SDS011;66364;52.622;7.746;2023-08-06T01:36:02;9.05;;;8.35;;
77304;SDS011;66364;52.622;7.746;2023-08-06T01:38:06;8.40;;;7.55;;
77304;SDS011;66364;52.622;7.746;2023-08-06T01:40:12;10.30;;;7.60;;
77304;SDS011;66364;52.622;7.746;2023-08-06T01:42:11;8.75;;;7.90;;
77304;SDS011;66364;52.622;7.746;2023-08-06T01:44:12;9.53;;;8.73;;
77304;SDS011;66364;52.622;7.746;2023-08-06T01:46:15;8.33;;;7.53;;
77304;SDS011;66364;52.622;7.746;2023-08-06T01:48:16;8.03;;;7.23;;
77304;SDS011;66364;52.622;7.746;2023-08-06T01:50:17;8.08;;;7.20;;
77304;SDS011;66364;52.622;7.746;2023-08-06T01:52:18;9.15;;;7.53;;
77304;SDS011;66364;52.622;7.746;2023-08-06T01:54:19;9.20;;;7.40;;
77304;SDS011;66364;52.622;7.746;2023-08-06T01:56:20;10.20;;;8.77;;
77304;SDS011;66364;52.622;7.746;2023-08-06T01:58:21;9.13;;;8.23;;
77304;SDS011;66364;52.622;7.746;2023-08-06T02:00:22;8.37;;;7.50;;
77304;SDS011;66364;52.622;7.746;2023-08-06T02:02:23;8.68;;;7.37;;
77304;SDS011;66364;52.622;7.746;2023-08-06T02:04:24;8.10;;;7.37;;
77304;SDS011;66364;52.622;7.746;2023-08-06T02:06:25;8.08;;;7.47;;
77304;SDS011;66364;52.622;7.746;2023-08-06T02:08:27;9.60;;;8.13;;
77304;SDS011;66364;52.622;7.746;2023-08-06T02:10:28;14.33;;;8.38;;
77304;SDS011;66364;52.622;7.746;2023-08-06T02:12:29;9.27;;;8.47;;
77304;SDS011;66364;52.622;7.746;2023-08-06T02:14:30;11.13;;;8.50;;
77304;SDS011;66364;52.622;7.746;2023-08-06T02:16:31;9.28;;;8.30;;
77304;SDS011;66364;52.622;7.746;2023-08-06T02:18:32;10.28;;;8.05;;
77304;SDS011;66364;52.622;7.746;2023-08-06T02:20:33;11.33;;;8.90;;
77304;SDS011;66364;52.622;7.746;2023-08-06T02:22:34;9.00;;;8.20;;
77304;SDS011;66364;52.622;7.746;2023-08-06T02:24:35;8.67;;;7.87;;
77304;SDS011;66364;52.622;7.746;2023-08-06T02:26:36;12.20;;;7.77;;
77304;SDS011;66364;52.622;7.746;2023-08-06T02:28:38;11.15;;;8.53;;
77304;SDS011;66364;52.622;7.746;2023-08-06T02:30:39;10.30;;;9.40;;
77304;SDS011;66364;52.622;7.746;2023-08-06T02:32:40;11.60;;;10.45;;
77304;SDS011;66364;52.622;7.746;2023-08-06T02:34:41;9.97;;;8.97;;
77304;SDS011;66364;52.622;7.746;2023-08-06T02:36:42;11.87;;;8.97;;
77304;SDS011;66364;52.622;7.746;2023-08-06T02:38:43;9.33;;;8.33;;
77304;SDS011;66364;52.622;7.746;2023-08-06T02:40:44;9.78;;;8.90;;
77304;SDS011;66364;52.622;7.746;2023-08-06T02:42:46;10.88;;;9.95;;
77304;SDS011;66364;52.622;7.746;2023-08-06T02:44:47;12.10;;;9.60;;
77304;SDS011;66364;52.622;7.746;2023-08-06T02:46:48;11.22;;;10.13;;
77304;SDS011;66364;52.622;7.746;2023-08-06T02:48:49;11.90;;;10.15;;
77304;SDS011;66364;52.622;7.746;2023-08-06T02:50:50;11.27;;;10.10;;
77304;SDS011;66364;52.622;7.746;2023-08-06T02:52:51;11.20;;;10.10;;
77304;SDS011;66364;52.622;7.746;2023-08-06T02:54:52;11.23;;;10.10;;
77304;SDS011;66364;52.622;7.746;2023-08-06T02:56:54;13.03;;;11.63;;
77304;SDS011;66364;52.622;7.746;2023-08-06T02:58:54;12.00;;;10.80;;
77304;SDS011;66364;52.622;7.746;2023-08-06T03:01:13;12.20;;;11.00;;
77304;SDS011;66364;52.622;7.746;2023-08-06T03:03:06;11.48;;;10.38;;
77304;SDS011;66364;52.622;7.746;2023-08-06T03:05:07;12.30;;;11.20;;
77304;SDS011;66364;52.622;7.746;2023-08-06T03:07:08;12.13;;;10.93;;
77304;SDS011;66364;52.622;7.746;2023-08-06T03:09:09;11.67;;;10.57;;
77304;SDS011;66364;52.622;7.746;2023-08-06T03:11:10;11.80;;;10.70;;
77304;SDS011;66364;52.622;7.746;2023-08-06T03:13:11;11.73;;;10.63;;
77304;SDS011;66364;52.622;7.746;2023-08-06T03:15:12;11.23;;;9.93;;
77304;SDS011;66364;52.622;7.746;2023-08-06T03:17:13;10.90;;;9.90;;
77304;SDS011;66364;52.622;7.746;2023-08-06T03:19:15;11.45;;;10.25;;
77304;SDS011;66364;52.622;7.746;2023-08-06T03:21:16;10.90;;;9.97;;
77304;SDS011;66364;52.622;7.746;2023-08-06T03:23:17;11.97;;;10.32;;
77304;SDS011;66364;52.622;7.746;2023-08-06T03:25:19;12.65;;;9.88;;
77304;SDS011;66364;52.622;7.746;2023-08-06T03:27:20;10.35;;;9.43;;
77304;SDS011;66364;52.622;7.746;2023-08-06T03:29:21;11.33;;;10.00;;
77304;SDS011;66364;52.622;7.746;2023-08-06T03:31:22;13.62;;;10.00;;
77304;SDS011;66364;52.622;7.746;2023-08-06T03:33:24;11.50;;;10.40;;
77304;SDS011;66364;52.622;7.746;2023-08-06T03:35:25;11.83;;;10.73;;
77304;SDS011;66364;52.622;7.746;2023-08-06T03:37:26;11.22;;;10.00;;
77304;SDS011;66364;52.622;7.746;2023-08-06T03:39:27;11.25;;;10.15;;
77304;SDS011;66364;52.622;7.746;2023-08-06T03:41:28;11.53;;;9.80;;
77304;SDS011;66364;52.622;7.746;2023-08-06T03:43:29;11.20;;;10.20;;
77304;SDS011;66364;52.622;7.746;2023-08-06T03:45:30;10.47;;;9.47;;
77304;SDS011;66364;52.622;7.746;2023-08-06T03:47:31;12.18;;;10.40;;
77304;SDS011;66364;52.622;7.746;2023-08-06T03:49:32;11.30;;;10.20;;
77304;SDS011;66364;52.622;7.746;2023-08-06T03:51:34;11.95;;;10.72;;
77304;SDS011;66364;52.622;7.746;2023-08-06T03:53:34;10.83;;;9.83;;
77304;SDS011;66364;52.622;7.746;2023-08-06T03:55:35;10.70;;;9.60;;
77304;SDS011;66364;52.622;7.746;2023-08-06T03:57:36;10.20;;;9.23;;
77304;SDS011;66364;52.622;7.746;2023-08-06T03:59:37;9.97;;;9.07;;
77304;SDS011;66364;52.622;7.746;2023-08-06T04:01:38;12.70;;;10.40;;
77304;SDS011;66364;52.622;7.746;2023-08-06T04:03:39;10.03;;;9.13;;
77304;SDS011;66364;52.622;7.746;2023-08-06T04:05:42;11.73;;;9.33;;
77304;SDS011;66364;52.622;7.746;2023-08-06T04:07:43;10.00;;;9.00;;
77304;SDS011;66364;52.622;7.746;2023-08-06T04:09:54;9.45;;;8.55;;
77304;SDS011;66364;52.622;7.746;2023-08-06T04:11:57;10.23;;;8.55;;
77304;SDS011;66364;52.622;7.746;2023-08-06T04:13:58;10.78;;;9.68;;
77304;SDS011;66364;52.622;7.746;2023-08-06T04:16:02;9.15;;;8.45;;
77304;SDS011;66364;52.622;7.746;2023-08-06T04:18:04;10.68;;;9.68;;
77304;SDS011;66364;52.622;7.746;2023-08-06T04:20:05;14.13;;;10.27;;
77304;SDS011;66364;52.622;7.746;2023-08-06T04:22:07;13.00;;;10.00;;
77304;SDS011;66364;52.622;7.746;2023-08-06T04:24:08;11.00;;;10.00;;
77304;SDS011;66364;52.622;7.746;2023-08-06T04:26:09;11.27;;;10.17;;
77304;SDS011;66364;52.622;7.746;2023-08-06T04:28:10;11.40;;;10.23;;
77304;SDS011;66364;52.622;7.746;2023-08-06T04:30:11;16.00;;;11.43;;
77304;SDS011;66364;52.622;7.746;2023-08-06T04:32:13;14.85;;;11.18;;
77304;SDS011;66364;52.622;7.746;2023-08-06T04:34:14;13.40;;;10.90;;
77304;SDS011;66364;52.622;7.746;2023-08-06T04:36:15;13.27;;;10.77;;
77304;SDS011;66364;52.622;7.746;2023-08-06T04:38:17;13.10;;;10.53;;
77304;SDS011;66364;52.622;7.746;2023-08-06T04:40:17;11.37;;;10.37;;
77304;SDS011;66364;52.622;7.746;2023-08-06T04:42:18;12.00;;;10.87;;
77304;SDS011;66364;52.622;7.746;2023-08-06T04:44:20;11.33;;;10.33;;
77304;SDS011;66364;52.622;7.746;2023-08-06T04:46:21;13.88;;;11.57;;
77304;SDS011;66364;52.622;7.746;2023-08-06T04:48:22;18.92;;;12.70;;
77304;SDS011;66364;52.622;7.746;2023-08-06T04:50:23;14.47;;;11.77;;
77304;SDS011;66364;52.622;7.746;2023-08-06T04:52:24;12.77;;;11.57;;
77304;SDS011;66364;52.622;7.746;2023-08-06T04:54:25;12.85;;;10.88;;
77304;SDS011;66364;52.622;7.746;2023-08-06T04:56:26;14.28;;;12.33;;
77304;SDS011;66364;52.622;7.746;2023-08-06T04:58:27;13.93;;;12.53;;
77304;SDS011;66364;52.622;7.746;2023-08-06T05:00:28;12.47;;;11.27;;
77304;SDS011;66364;52.622;7.746;2023-08-06T05:02:30;15.48;;;11.60;;
77304;SDS011;66364;52.622;7.746;2023-08-06T05:04:31;12.53;;;11.35;;
77304;SDS011;66364;52.622;7.746;2023-08-06T05:06:32;12.63;;;11.37;;
77304;SDS011;66364;52.622;7.746;2023-08-06T05:08:33;12.43;;;10.83;;
77304;SDS011;66364;52.622;7.746;2023-08-06T05:10:34;11.80;;;10.70;;
77304;SDS011;66364;52.622;7.746;2023-08-06T05:12:35;13.17;;;11.40;;
77304;SDS011;66364;52.622;7.746;2023-08-06T05:14:36;11.23;;;10.00;;
77304;SDS011;66364;52.622;7.746;2023-08-06T05:16:37;10.27;;;9.33;;
77304;SDS011;66364;52.622;7.746;2023-08-06T05:18:38;10.90;;;9.20;;
77304;SDS011;66364;52.622;7.746;2023-08-06T05:20:41;10.73;;;9.77;;
77304;SDS011;66364;52.622;7.746;2023-08-06T05:22:43;11.38;;;9.95;;
77304;SDS011;66364;52.622;7.746;2023-08-06T05:24:44;10.90;;;9.80;;
77304;SDS011;66364;52.622;7.746;2023-08-06T05:26:45;16.13;;;9.90;;
77304;SDS011;66364;52.622;7.746;2023-08-06T05:28:46;10.80;;;9.67;;
77304;SDS011;66364;52.622;7.746;2023-08-06T05:30:47;10.87;;;9.87;;
77304;SDS011;66364;52.622;7.746;2023-08-06T05:32:48;9.58;;;8.68;;
77304;SDS011;66364;52.622;7.746;2023-08-06T05:34:49;10.10;;;9.20;;
77304;SDS011;66364;52.622;7.746;2023-08-06T05:36:51;11.50;;;10.48;;
77304;SDS011;66364;52.622;7.746;2023-08-06T05:38:52;15.20;;;10.30;;
77304;SDS011;66364;52.622;7.746;2023-08-06T05:40:53;11.80;;;10.18;;
77304;SDS011;66364;52.622;7.746;2023-08-06T05:42:56;14.60;;;10.70;;
77304;SDS011;66364;52.622;7.746;2023-08-06T05:44:57;11.75;;;9.18;;
77304;SDS011;66364;52.622;7.746;2023-08-06T05:46:57;10.63;;;9.63;;
77304;SDS011;66364;52.622;7.746;2023-08-06T05:48:58;10.60;;;9.53;;
77304;SDS011;66364;52.622;7.746;2023-08-06T05:50:59;11.73;;;10.73;;
77304;SDS011;66364;52.622;7.746;2023-08-06T05:53:01;10.85;;;9.85;;
77304;SDS011;66364;52.622;7.746;2023-08-06T05:55:02;12.50;;;11.23;;
77304;SDS011;66364;52.622;7.746;2023-08-06T05:57:04;12.85;;;11.48;;
77304;SDS011;66364;52.622;7.746;2023-08-06T05:59:05;10.85;;;9.85;;
77304;SDS011;66364;52.622;7.746;2023-08-06T06:01:06;11.23;;;10.33;;
77304;SDS011;66364;52.622;7.746;2023-08-06T06:03:07;13.05;;;10.80;;
77304;SDS011;66364;52.622;7.746;2023-08-06T06:05:09;10.72;;;9.53;;
77304;SDS011;66364;52.622;7.746;2023-08-06T06:07:10;11.78;;;10.30;;
77304;SDS011;66364;52.622;7.746;2023-08-06T06:09:12;12.78;;;11.57;;
77304;SDS011;66364;52.622;7.746;2023-08-06T06:11:13;10.55;;;9.38;;
77304;SDS011;66364;52.622;7.746;2023-08-06T06:13:14;14.03;;;10.60;;
77304;SDS011;66364;52.622;7.746;2023-08-06T06:15:15;10.98;;;9.98;;
77304;SDS011;66364;52.622;7.746;2023-08-06T06:17:16;11.38;;;10.25;;
77304;SDS011;66364;52.622;7.746;2023-08-06T06:19:17;11.50;;;10.30;;
77304;SDS011;66364;52.622;7.746;2023-08-06T06:21:19;12.25;;;9.78;;
77304;SDS011;66364;52.622;7.746;2023-08-06T06:23:21;11.17;;;10.10;;
77304;SDS011;66364;52.622;7.746;2023-08-06T06:25:22;12.25;;;11.05;;
77304;SDS011;66364;52.622;7.746;2023-08-06T06:27:24;10.25;;;9.30;;
77304;SDS011;66364;52.622;7.746;2023-08-06T06:29:25;13.77;;;10.50;;
77304;SDS011;66364;52.622;7.746;2023-08-06T06:31:26;12.37;;;9.93;;
77304;SDS011;66364;52.622;7.746;2023-08-06T06:33:27;12.30;;;10.37;;
77304;SDS011;66364;52.622;7.746;2023-08-06T06:35:30;10.68;;;9.68;;
77304;SDS011;66364;52.622;7.746;2023-08-06T06:37:31;12.07;;;10.93;;
77304;SDS011;66364;52.622;7.746;2023-08-06T06:39:33;9.80;;;8.63;;
77304;SDS011;66364;52.622;7.746;2023-08-06T06:41:34;11.40;;;10.40;;
77304;SDS011;66364;52.622;7.746;2023-08-06T06:43:35;10.60;;;9.60;;
77304;SDS011;66364;52.622;7.746;2023-08-06T06:45:36;10.98;;;9.88;;
77304;SDS011;66364;52.622;7.746;2023-08-06T06:47:37;12.00;;;10.80;;
77304;SDS011;66364;52.622;7.746;2023-08-06T06:49:38;10.83;;;9.83;;
77304;SDS011;66364;52.622;7.746;2023-08-06T06:51:39;11.00;;;10.00;;
77304;SDS011;66364;52.622;7.746;2023-08-06T06:53:40;12.90;;;11.70;;
77304;SDS011;66364;52.622;7.746;2023-08-06T06:55:41;13.72;;;11.97;;
77304;SDS011;66364;52.622;7.746;2023-08-06T06:57:42;12.07;;;10.87;;
77304;SDS011;66364;52.622;7.746;2023-08-06T06:59:43;10.93;;;9.93;;
77304;SDS011;66364;52.622;7.746;2023-08-06T07:01:45;10.53;;;9.60;;
77304;SDS011;66364;52.622;7.746;2023-08-06T07:03:46;11.10;;;10.00;;
77304;SDS011;66364;52.622;7.746;2023-08-06T07:05:47;11.50;;;10.30;;
77304;SDS011;66364;52.622;7.746;2023-08-06T07:07:49;14.13;;;9.65;;
77304;SDS011;66364;52.622;7.746;2023-08-06T07:09:51;11.30;;;10.15;;
77304;SDS011;66364;52.622;7.746;2023-08-06T07:11:52;10.53;;;9.53;;
77304;SDS011;66364;52.622;7.746;2023-08-06T07:13:56;10.60;;;9.70;;
77304;SDS011;66364;52.622;7.746;2023-08-06T07:15:58;11.48;;;10.45;;
77304;SDS011;66364;52.622;7.746;2023-08-06T07:17:59;11.97;;;10.80;;
77304;SDS011;66364;52.622;7.746;2023-08-06T07:20:00;11.63;;;9.98;;
77304;SDS011;66364;52.622;7.746;2023-08-06T07:22:01;9.17;;;8.37;;
77304;SDS011;66364;52.622;7.746;2023-08-06T07:24:02;9.78;;;8.98;;
77304;SDS011;66364;52.622;7.746;2023-08-06T07:26:06;10.48;;;9.33;;
77304;SDS011;66364;52.622;7.746;2023-08-06T07:28:07;12.63;;;9.48;;
77304;SDS011;66364;52.622;7.746;2023-08-06T07:30:08;10.17;;;9.27;;
77304;SDS011;66364;52.622;7.746;2023-08-06T07:32:09;10.48;;;9.03;;
77304;SDS011;66364;52.622;7.746;2023-08-06T07:34:10;11.28;;;10.28;;
77304;SDS011;66364;52.622;7.746;2023-08-06T07:36:12;9.67;;;8.77;;
77304;SDS011;66364;52.622;7.746;2023-08-06T07:38:14;10.55;;;9.68;;
77304;SDS011;66364;52.622;7.746;2023-08-06T07:40:15;9.90;;;9.03;;
77304;SDS011;66364;52.622;7.746;2023-08-06T07:42:16;9.35;;;8.18;;
77304;SDS011;66364;52.622;7.746;2023-08-06T07:44:18;10.10;;;8.60;;
77304;SDS011;66364;52.622;7.746;2023-08-06T07:46:19;9.30;;;8.40;;
77304;SDS011;66364;52.622;7.746;2023-08-06T07:48:21;8.80;;;8.00;;
77304;SDS011;66364;52.622;7.746;2023-08-06T07:50:21;10.53;;;9.43;;
77304;SDS011;66364;52.622;7.746;2023-08-06T07:52:22;10.20;;;9.00;;
77304;SDS011;66364;52.622;7.746;2023-08-06T07:54:23;10.63;;;9.73;;
77304;SDS011;66364;52.622;7.746;2023-08-06T07:56:24;10.23;;;9.30;;
77304;SDS011;66364;52.622;7.746;2023-08-06T07:58:25;10.40;;;9.40;;
77304;SDS011;66364;52.622;7.746;2023-08-06T08:00:28;8.80;;;7.78;;
77304;SDS011;66364;52.622;7.746;2023-08-06T08:02:29;10.10;;;9.20;;
77304;SDS011;66364;52.622;7.746;2023-08-06T08:04:31;10.63;;;9.63;;
77304;SDS011;66364;52.622;7.746;2023-08-06T08:06:33;9.70;;;8.88;;
77304;SDS011;66364;52.622;7.746;2023-08-06T08:08:35;9.48;;;8.70;;
77304;SDS011;66364;52.622;7.746;2023-08-06T08:10:39;10.53;;;9.50;;
77304;SDS011;66364;52.622;7.746;2023-08-06T08:12:41;11.10;;;10.20;;
77304;SDS011;66364;52.622;7.746;2023-08-06T08:14:43;9.10;;;7.72;;
77304;SDS011;66364;52.622;7.746;2023-08-06T08:16:46;9.15;;;8.35;;
77304;SDS011;66364;52.622;7.746;2023-08-06T08:18:47;9.88;;;8.88;;
77304;SDS011;66364;52.622;7.746;2023-08-06T08:20:50;8.90;;;8.15;;
77304;SDS011;66364;52.622;7.746;2023-08-06T08:22:52;8.23;;;7.53;;
77304;SDS011;66364;52.622;7.746;2023-08-06T08:25:01;9.50;;;8.57;;
77304;SDS011;66364;52.622;7.746;2023-08-06T08:27:01;8.38;;;7.55;;
77304;SDS011;66364;52.622;7.746;2023-08-06T08:29:02;8.63;;;7.60;;
77304;SDS011;66364;52.622;7.746;2023-08-06T08:31:07;9.53;;;8.63;;
77304;SDS011;66364;52.622;7.746;2023-08-06T08:33:10;8.93;;;7.83;;
77304;SDS011;66364;52.622;7.746;2023-08-06T08:35:11;6.78;;;6.20;;
77304;SDS011;66364;52.622;7.746;2023-08-06T08:37:13;7.83;;;7.20;;
77304;SDS011;66364;52.622;7.746;2023-08-06T08:39:14;8.88;;;6.92;;
77304;SDS011;66364;52.622;7.746;2023-08-06T08:41:15;8.27;;;7.67;;
77304;SDS011;66364;52.622;7.746;2023-08-06T08:43:16;7.08;;;6.42;;
77304;SDS011;66364;52.622;7.746;2023-08-06T08:45:20;9.33;;;6.10;;
77304;SDS011;66364;52.622;7.746;2023-08-06T08:47:27;6.30;;;5.80;;
77304;SDS011;66364;52.622;7.746;2023-08-06T08:49:28;6.35;;;5.85;;
77304;SDS011;66364;52.622;7.746;2023-08-06T08:51:30;9.25;;;6.03;;
77304;SDS011;66364;52.622;7.746;2023-08-06T08:53:33;7.12;;;6.53;;
77304;SDS011;66364;52.622;7.746;2023-08-06T08:55:35;9.30;;;6.47;;
77304;SDS011;66364;52.622;7.746;2023-08-06T08:57:38;7.12;;;6.53;;
77304;SDS011;66364;52.622;7.746;2023-08-06T08:59:39;5.70;;;5.20;;
77304;SDS011;66364;52.622;7.746;2023-08-06T09:01:40;7.43;;;5.23;;
77304;SDS011;66364;52.622;7.746;2023-08-06T09:03:43;6.58;;;5.53;;
77304;SDS011;66364;52.622;7.746;2023-08-06T09:05:44;6.40;;;5.80;;
77304;SDS011;66364;52.622;7.746;2023-08-06T09:07:48;6.75;;;5.75;;
77304;SDS011;66364;52.622;7.746;2023-08-06T09:09:56;4.80;;;4.40;;
77304;SDS011;66364;52.622;7.746;2023-08-06T09:12:00;5.62;;;5.12;;
77304;SDS011;66364;52.622;7.746;2023-08-06T09:14:02;5.97;;;4.80;;
77304;SDS011;66364;52.622;7.746;2023-08-06T09:16:03;4.50;;;4.10;;
77304;SDS011;66364;52.622;7.746;2023-08-06T09:18:10;6.33;;;5.83;;
77304;SDS011;66364;52.622;7.746;2023-08-06T09:20:12;5.72;;;5.22;;
77304;SDS011;66364;52.622;7.746;2023-08-06T09:22:14;6.53;;;5.47;;
77304;SDS011;66364;52.622;7.746;2023-08-06T09:24:15;4.95;;;4.42;;
77304;SDS011;66364;52.622;7.746;2023-08-06T09:26:16;4.90;;;4.40;;
77304;SDS011;66364;52.622;7.746;2023-08-06T09:28:18;5.15;;;3.80;;
77304;SDS011;66364;52.622;7.746;2023-08-06T09:30:28;5.67;;;5.07;;
77304;SDS011;66364;52.622;7.746;2023-08-06T09:32:47;5.08;;;4.65;;
77304;SDS011;66364;52.622;7.746;2023-08-06T09:34:54;5.08;;;4.67;;
77304;SDS011;66364;52.622;7.746;2023-08-06T09:36:54;5.22;;;4.72;;
77304;SDS011;66364;52.622;7.746;2023-08-06T09:38:56;5.05;;;4.65;;
77304;SDS011;66364;52.622;7.746;2023-08-06T09:40:57;3.80;;;3.50;;
77304;SDS011;66364;52.622;7.746;2023-08-06T09:42:58;4.70;;;4.30;;
77304;SDS011;66364;52.622;7.746;2023-08-06T09:45:05;4.83;;;4.42;;
77304;SDS011;66364;52.622;7.746;2023-08-06T09:47:08;5.03;;;3.90;;
77304;SDS011;66364;52.622;7.746;2023-08-06T09:49:09;3.92;;;3.62;;
77304;SDS011;66364;52.622;7.746;2023-08-06T09:51:10;3.97;;;3.67;;
77304;SDS011;66364;52.622;7.746;2023-08-06T09:53:14;5.10;;;3.75;;
77304;SDS011;66364;52.622;7.746;2023-08-06T09:55:16;5.33;;;4.00;;
77304;SDS011;66364;52.622;7.746;2023-08-06T09:59:22;6.78;;;4.50;;
77304;SDS011;66364;52.622;7.746;2023-08-06T10:01:24;5.22;;;4.55;;
77304;SDS011;66364;52.622;7.746;2023-08-06T10:03:25;4.92;;;4.53;;
77304;SDS011;66364;52.622;7.746;2023-08-06T10:05:26;3.83;;;3.35;;
77304;SDS011;66364;52.622;7.746;2023-08-06T10:07:29;5.15;;;4.37;;
77304;SDS011;66364;52.622;7.746;2023-08-06T10:09:31;5.62;;;4.83;;
77304;SDS011;66364;52.622;7.746;2023-08-06T10:11:32;5.80;;;5.30;;
77304;SDS011;66364;52.622;7.746;2023-08-06T10:13:33;6.50;;;6.00;;
77304;SDS011;66364;52.622;7.746;2023-08-06T10:15:35;6.90;;;6.28;;
77304;SDS011;66364;52.622;7.746;2023-08-06T10:17:39;6.92;;;6.33;;
77304;SDS011;66364;52.622;7.746;2023-08-06T10:19:41;6.75;;;6.08;;
77304;SDS011;66364;52.622;7.746;2023-08-06T10:22:07;7.15;;;5.47;;
77304;SDS011;66364;52.622;7.746;2023-08-06T10:24:06;7.00;;;6.30;;
77304;SDS011;66364;52.622;7.746;2023-08-06T10:26:08;6.72;;;6.20;;
77304;SDS011;66364;52.622;7.746;2023-08-06T10:28:10;7.03;;;6.10;;
77304;SDS011;66364;52.622;7.746;2023-08-06T10:30:28;7.80;;;7.12;;
77304;SDS011;66364;52.622;7.746;2023-08-06T10:32:45;7.12;;;6.53;;
77304;SDS011;66364;52.622;7.746;2023-08-06T10:34:56;8.28;;;7.37;;
77304;SDS011;66364;52.622;7.746;2023-08-06T10:37:01;7.05;;;6.45;;
77304;SDS011;66364;52.622;7.746;2023-08-06T10:39:02;5.45;;;4.95;;
77304;SDS011;66364;52.622;7.746;2023-08-06T10:41:03;6.50;;;5.90;;
77304;SDS011;66364;52.622;7.746;2023-08-06T10:43:04;11.23;;;6.40;;
77304;SDS011;66364;52.622;7.746;2023-08-06T10:45:15;7.70;;;5.40;;
77304;SDS011;66364;52.622;7.746;2023-08-06T10:47:28;7.10;;;6.37;;
77304;SDS011;66364;52.622;7.746;2023-08-06T10:49:29;6.05;;;5.55;;
77304;SDS011;66364;52.622;7.746;2023-08-06T10:51:32;6.45;;;5.90;;
77304;SDS011;66364;52.622;7.746;2023-08-06T10:53:33;6.97;;;6.28;;
77304;SDS011;66364;52.622;7.746;2023-08-06T10:55:34;7.33;;;5.70;;
77304;SDS011;66364;52.622;7.746;2023-08-06T10:57:36;6.80;;;5.72;;
77304;SDS011;66364;52.622;7.746;2023-08-06T10:59:37;7.22;;;6.53;;
77304;SDS011;66364;52.622;7.746;2023-08-06T11:01:38;7.37;;;6.67;;
77304;SDS011;66364;52.622;7.746;2023-08-06T11:03:39;7.62;;;6.80;;
77304;SDS011;66364;52.622;7.746;2023-08-06T11:05:47;6.92;;;6.22;;
77304;SDS011;66364;52.622;7.746;2023-08-06T11:07:51;7.00;;;6.40;;
77304;SDS011;66364;52.622;7.746;2023-08-06T11:09:52;5.60;;;5.10;;
77304;SDS011;66364;52.622;7.746;2023-08-06T11:11:53;5.87;;;5.40;;
77304;SDS011;66364;52.622;7.746;2023-08-06T11:13:54;6.17;;;5.58;;
77304;SDS011;66364;52.622;7.746;2023-08-06T11:15:55;5.50;;;5.07;;
77304;SDS011;66364;52.622;7.746;2023-08-06T11:17:56;5.67;;;5.17;;
77304;SDS011;66364;52.622;7.746;2023-08-06T11:19:59;5.95;;;5.45;;
77304;SDS011;66364;52.622;7.746;2023-08-06T11:22:01;6.05;;;5.35;;
77304;SDS011;66364;52.622;7.746;2023-08-06T11:24:02;5.60;;;4.97;;
77304;SDS011;66364;52.622;7.746;2023-08-06T11:26:03;4.70;;;4.30;;
77304;SDS011;66364;52.622;7.746;2023-08-06T11:28:04;5.00;;;4.60;;
77304;SDS011;66364;52.622;7.746;2023-08-06T11:30:06;4.80;;;4.30;;
77304;SDS011;66364;52.622;7.746;2023-08-06T11:32:08;5.20;;;4.80;;
77304;SDS011;66364;52.622;7.746;2023-08-06T11:34:10;5.55;;;4.10;;
77304;SDS011;66364;52.622;7.746;2023-08-06T11:36:11;6.60;;;4.70;;
77304;SDS011;66364;52.622;7.746;2023-08-06T11:38:13;3.85;;;3.55;;
77304;SDS011;66364;52.622;7.746;2023-08-06T11:40:14;4.45;;;3.98;;
77304;SDS011;66364;52.622;7.746;2023-08-06T11:42:16;4.15;;;3.85;;
77304;SDS011;66364;52.622;7.746;2023-08-06T11:44:21;3.62;;;3.35;;
77304;SDS011;66364;52.622;7.746;2023-08-06T11:46:23;5.95;;;3.62;;
77304;SDS011;66364;52.622;7.746;2023-08-06T11:48:24;3.30;;;3.00;;
77304;SDS011;66364;52.622;7.746;2023-08-06T11:50:25;4.43;;;4.00;;
77304;SDS011;66364;52.622;7.746;2023-08-06T11:52:28;3.05;;;2.75;;
77304;SDS011;66364;52.622;7.746;2023-08-06T11:54:32;4.40;;;4.00;;
77304;SDS011;66364;52.622;7.746;2023-08-06T11:56:33;4.55;;;4.22;;
77304;SDS011;66364;52.622;7.746;2023-08-06T11:58:35;5.97;;;5.45;;
77304;SDS011;66364;52.622;7.746;2023-08-06T12:00:36;5.70;;;5.20;;
77304;SDS011;66364;52.622;7.746;2023-08-06T12:02:41;7.10;;;5.10;;
77304;SDS011;66364;52.622;7.746;2023-08-06T12:07:06;5.80;;;5.20;;
77304;SDS011;66364;52.622;7.746;2023-08-06T12:09:07;6.75;;;6.25;;
77304;SDS011;66364;52.622;7.746;2023-08-06T12:11:08;6.40;;;5.80;;
77304;SDS011;66364;52.622;7.746;2023-08-06T12:13:09;6.10;;;5.50;;
77304;SDS011;66364;52.622;7.746;2023-08-06T12:15:11;5.08;;;4.67;;